createdAt,value
2022-10-09T00:00:47.596Z,97665.34
2022-10-09T00:01:49.423Z,97658.06
2022-10-09T00:02:51.520Z,97667.53
2022-10-09T00:03:54.820Z,97667.53
2022-10-09T00:04:56.627Z,97675.00
2022-10-09T00:05:58.702Z,97670.56
2022-10-09T00:07:00.428Z,97673.78
2022-10-09T00:08:02.509Z,97672.56
2022-10-09T00:09:04.633Z,97674.19
2022-10-09T00:10:06.550Z,97669.53
2022-10-09T00:11:09.612Z,97667.50
2022-10-09T00:12:11.392Z,97669.13
2022-10-09T00:13:13.181Z,97670.94
2022-10-09T00:14:14.967Z,97678.00
2022-10-09T00:15:17.075Z,97677.00
2022-10-09T00:16:19.423Z,97671.94
2022-10-09T00:17:21.291Z,97673.97
2022-10-09T00:18:23.089Z,97668.31
2022-10-09T00:19:24.884Z,97677.81
2022-10-09T00:20:26.650Z,97669.31
2022-10-09T00:21:32.765Z,97662.69
2022-10-09T00:22:34.968Z,97671.38
2022-10-09T00:23:36.714Z,97675.84
2022-10-09T00:24:38.567Z,97678.47
2022-10-09T00:25:40.633Z,97673.22
2022-10-09T00:26:42.348Z,97676.03
2022-10-09T00:27:44.420Z,97664.72
2022-10-09T00:28:46.598Z,97668.94
2022-10-09T00:29:48.406Z,97664.72
2022-10-09T00:30:50.726Z,97674.44
2022-10-09T00:31:52.552Z,97670.97
2022-10-09T00:32:54.485Z,97671.81
2022-10-09T00:33:56.229Z,97676.84
2022-10-09T00:34:58.078Z,97675.84
2022-10-09T00:36:02.092Z,97676.44
2022-10-09T00:37:03.849Z,97676.44
2022-10-09T00:38:05.856Z,97672.78
2022-10-09T00:39:07.680Z,97677.03
2022-10-09T00:40:09.761Z,97679.66
2022-10-09T00:41:14.514Z,97682.28
2022-10-09T00:42:16.224Z,97685.09
2022-10-09T00:43:19.513Z,97681.28
2022-10-09T00:44:40.002Z,97679.88
2022-10-09T00:45:45.152Z,97672.03
2022-10-09T00:46:49.596Z,97670.59
2022-10-09T00:47:54.778Z,97673.22
2022-10-09T00:48:59.432Z,97678.47
2022-10-09T00:50:27.558Z,97676.44
2022-10-09T00:51:30.264Z,97674.84
2022-10-09T00:52:32.172Z,97680.91
2022-10-09T00:53:35.606Z,97682.13
2022-10-09T00:54:40.306Z,97678.09
2022-10-09T00:55:42.376Z,97682.31
2022-10-09T00:56:44.227Z,97679.91
2022-10-09T00:57:46.701Z,97680.94
2022-10-09T00:58:52.114Z,97680.09
2022-10-09T00:59:53.872Z,97685.97
2022-10-09T01:00:55.825Z,97680.31
2022-10-09T01:01:57.749Z,97674.66
2022-10-09T01:02:59.602Z,97672.22
2022-10-09T01:04:01.400Z,97678.50
2022-10-09T01:05:03.267Z,97674.06
2022-10-09T01:06:16.196Z,97674.25
2022-10-09T01:07:36.189Z,97681.31
2022-10-09T01:08:47.173Z,97678.50
2022-10-09T01:10:02.575Z,97671.63
2022-10-09T01:11:09.013Z,97666.59
2022-10-09T01:12:18.598Z,97667.78
2022-10-09T01:13:27.598Z,97666.00
2022-10-09T01:14:32.829Z,97670.22
2022-10-09T01:16:00.834Z,97664.97
2022-10-09T01:17:06.400Z,97667.59
2022-10-09T01:18:40.563Z,97668.81
2022-10-09T01:20:04.229Z,97670.22
2022-10-09T01:21:13.463Z,97666.81
2022-10-09T01:22:20.828Z,97667.41
2022-10-09T01:23:22.522Z,97664.56
2022-10-09T01:24:24.256Z,97662.75
2022-10-09T01:25:33.643Z,97665.19
2022-10-09T01:26:55.713Z,97666.19
2022-10-09T01:27:57.664Z,97661.53
2022-10-09T01:29:02.548Z,97660.53
2022-10-09T01:30:06.908Z,97655.28
2022-10-09T01:31:10.027Z,97654.25
2022-10-09T01:32:14.673Z,97654.25
2022-10-09T01:33:16.823Z,97654.06
2022-10-09T01:34:19.551Z,97657.72
2022-10-09T01:35:22.166Z,97654.84
2022-10-09T01:36:24.690Z,97653.06
2022-10-09T01:37:27.905Z,97653.25
2022-10-09T01:38:30.195Z,97651.44
2022-10-09T01:39:32.548Z,97656.69
2022-10-09T01:40:34.714Z,97651.22
2022-10-09T01:41:36.481Z,97647.59
2022-10-09T01:42:38.591Z,97650.00
2022-10-09T01:43:41.034Z,97650.22
2022-10-09T01:44:43.024Z,97650.22
2022-10-09T01:45:45.899Z,97652.06
2022-10-09T01:46:48.063Z,97652.69
2022-10-09T01:47:50.750Z,97659.34
2022-10-09T01:48:57.347Z,97662.16
2022-10-09T01:50:17.755Z,97661.97
2022-10-09T01:51:22.308Z,97666.41
2022-10-09T01:52:29.647Z,97664.59
2022-10-09T01:53:32.062Z,97663.59
2022-10-09T01:54:52.341Z,97657.31
2022-10-09T01:56:03.958Z,97658.72
2022-10-09T01:57:08.372Z,97657.53
2022-10-09T01:58:27.245Z,97650.25
2022-10-09T01:59:29.646Z,97652.66
2022-10-09T02:00:34.486Z,97653.47
2022-10-09T02:01:38.151Z,97654.69
2022-10-09T02:02:42.285Z,97663.56
2022-10-09T02:03:47.757Z,97660.94
2022-10-09T02:04:50.249Z,97655.31
2022-10-09T02:05:52.948Z,97660.38
2022-10-09T02:06:54.728Z,97659.97
2022-10-09T02:07:57.041Z,97661.97
2022-10-09T02:08:59.773Z,97660.34
2022-10-09T02:10:02.641Z,97665.59
2022-10-09T02:11:04.729Z,97661.56
2022-10-09T02:12:08.233Z,97655.53
2022-10-09T02:13:10.314Z,97659.16
2022-10-09T02:14:12.191Z,97652.31
2022-10-09T02:15:14.487Z,97651.69
2022-10-09T02:16:20.045Z,97652.50
2022-10-09T02:17:23.653Z,97652.31
2022-10-09T02:18:38.440Z,97663.81
2022-10-09T02:19:44.580Z,97655.50
2022-10-09T02:20:49.430Z,97655.13
2022-10-09T02:21:55.750Z,97664.41
2022-10-09T02:22:59.487Z,97657.91
2022-10-09T02:24:02.660Z,97654.31
2022-10-09T02:25:06.759Z,97654.06
2022-10-09T02:26:09.742Z,97657.53
2022-10-09T02:27:12.575Z,97648.03
2022-10-09T02:28:14.416Z,97653.47
2022-10-09T02:29:16.360Z,97656.09
2022-10-09T02:30:18.260Z,97654.31
2022-10-09T02:31:28.086Z,97655.69
2022-10-09T02:32:30.065Z,97652.88
2022-10-09T02:33:32.922Z,97654.47
2022-10-09T02:34:34.795Z,97651.25
2022-10-09T02:35:37.947Z,97655.31
2022-10-09T02:36:40.166Z,97655.72
2022-10-09T02:37:41.913Z,97655.72
2022-10-09T02:38:43.681Z,97662.59
2022-10-09T02:39:45.506Z,97653.72
2022-10-09T02:40:47.294Z,97655.75
2022-10-09T02:41:48.991Z,97659.56
2022-10-09T02:42:51.221Z,97654.31
2022-10-09T02:43:53.688Z,97658.38
2022-10-09T02:44:55.615Z,97660.56
2022-10-09T02:45:57.408Z,97663.78
2022-10-09T02:46:59.338Z,97659.97
2022-10-09T02:48:01.048Z,97664.81
2022-10-09T02:49:02.918Z,97660.34
2022-10-09T02:50:04.827Z,97660.16
2022-10-09T02:51:07.829Z,97661.78
2022-10-09T02:52:09.595Z,97656.75
2022-10-09T02:53:11.365Z,97650.69
2022-10-09T02:54:13.194Z,97652.28
2022-10-09T02:55:14.955Z,97658.13
2022-10-09T02:56:16.817Z,97655.31
2022-10-09T02:57:18.570Z,97655.13
2022-10-09T02:58:20.401Z,97658.34
2022-10-09T02:59:22.149Z,97660.13
2022-10-09T03:00:23.927Z,97663.59
2022-10-09T03:01:25.763Z,97665.19
2022-10-09T03:02:27.610Z,97655.31
2022-10-09T03:03:29.494Z,97660.53
2022-10-09T03:04:31.319Z,97656.09
2022-10-09T03:05:33.034Z,97658.53
2022-10-09T03:06:34.817Z,97650.66
2022-10-09T03:07:36.715Z,97656.50
2022-10-09T03:08:39.613Z,97657.28
2022-10-09T03:09:41.382Z,97661.75
2022-10-09T03:10:43.130Z,97661.75
2022-10-09T03:11:44.921Z,97660.94
2022-10-09T03:12:46.890Z,97655.91
2022-10-09T03:13:49.205Z,97656.69
2022-10-09T03:14:51.004Z,97654.91
2022-10-09T03:15:52.851Z,97645.41
2022-10-09T03:16:55.812Z,97655.91
2022-10-09T03:17:57.596Z,97658.72
2022-10-09T03:18:59.571Z,97658.72
2022-10-09T03:20:01.466Z,97648.44
2022-10-09T03:21:10.312Z,97650.25
2022-10-09T03:22:12.192Z,97651.88
2022-10-09T03:23:14.339Z,97654.69
2022-10-09T03:24:16.101Z,97661.16
2022-10-09T03:25:17.908Z,97654.09
2022-10-09T03:26:20.694Z,97660.13
2022-10-09T03:27:22.565Z,97653.09
2022-10-09T03:28:24.476Z,97658.34
2022-10-09T03:29:26.241Z,97649.88
2022-10-09T03:30:27.988Z,97655.13
2022-10-09T03:32:51.906Z,97656.72
2022-10-09T03:33:53.688Z,97662.16
2022-10-09T03:34:55.413Z,97657.13
2022-10-09T03:35:57.138Z,97658.75
2022-10-09T03:36:58.874Z,97661.38
2022-10-09T03:38:00.728Z,97657.94
2022-10-09T03:39:02.522Z,97650.88
2022-10-09T03:40:04.647Z,97656.13
2022-10-09T03:41:07.040Z,97656.31
2022-10-09T03:42:08.816Z,97663.19
2022-10-09T03:43:10.640Z,97655.50
2022-10-09T03:44:12.375Z,97653.69
2022-10-09T03:45:14.243Z,97659.97
2022-10-09T03:46:16.174Z,97660.75
2022-10-09T03:47:19.234Z,97661.56
2022-10-09T03:48:21.057Z,97660.75
2022-10-09T03:49:23.166Z,97659.16
2022-10-09T03:50:25.053Z,97659.97
2022-10-09T03:51:26.907Z,97659.56
2022-10-09T03:52:28.710Z,97659.75
2022-10-09T03:53:30.651Z,97660.78
2022-10-09T03:54:32.465Z,97666.63
2022-10-09T03:55:34.261Z,97666.44
2022-10-09T03:56:36.070Z,97668.03
2022-10-09T03:57:37.946Z,97668.03
2022-10-09T03:58:39.664Z,97663.81
2022-10-09T03:59:41.809Z,97667.44
2022-10-09T04:00:45.655Z,97670.06
2022-10-09T04:01:47.412Z,97661.56
2022-10-09T04:02:49.383Z,97668.84
2022-10-09T04:03:51.319Z,97665.22
2022-10-09T04:04:53.207Z,97668.84
2022-10-09T04:05:54.956Z,97668.84
2022-10-09T04:06:56.673Z,97672.50
2022-10-09T04:07:58.379Z,97667.25
2022-10-09T04:09:01.573Z,97669.88
2022-10-09T04:10:04.388Z,97675.13
2022-10-09T04:11:06.274Z,97671.47
2022-10-09T04:12:08.227Z,97662.00
2022-10-09T04:13:10.029Z,97670.88
2022-10-09T04:14:11.763Z,97668.03
2022-10-09T04:15:13.518Z,97676.09
2022-10-09T04:16:15.427Z,97676.09
2022-10-09T04:17:17.365Z,97676.09
2022-10-09T04:18:19.212Z,97674.50
2022-10-09T04:19:21.162Z,97681.97
2022-10-09T04:20:22.934Z,97674.50
2022-10-09T04:21:24.727Z,97673.28
2022-10-09T04:22:26.456Z,97673.28
2022-10-09T04:23:28.338Z,97677.53
2022-10-09T04:24:30.128Z,97674.09
2022-10-09T04:25:32.152Z,97679.94
2022-10-09T04:26:34.071Z,97673.09
2022-10-09T04:27:35.948Z,97677.53
2022-10-09T04:28:37.853Z,97674.09
2022-10-09T04:29:39.761Z,97681.16
2022-10-09T04:30:41.531Z,97674.50
2022-10-09T04:31:43.717Z,97674.50
2022-10-09T04:32:48.646Z,97674.50
2022-10-09T04:33:50.598Z,97675.50
2022-10-09T04:34:52.344Z,97685.78
2022-10-09T04:35:55.167Z,97683.97
2022-10-09T04:36:56.929Z,97679.34
2022-10-09T04:37:58.707Z,97677.31
2022-10-09T04:39:00.542Z,97685.00
2022-10-09T04:40:02.307Z,97679.94
2022-10-09T04:41:05.641Z,97678.53
2022-10-09T04:42:07.624Z,97683.97
2022-10-09T04:43:09.451Z,97681.16
2022-10-09T04:44:11.213Z,97685.00
2022-10-09T04:45:13.090Z,97677.13
2022-10-09T04:46:15.592Z,97683.78
2022-10-09T04:47:18.194Z,97677.31
2022-10-09T04:48:19.945Z,97677.13
2022-10-09T04:49:21.688Z,97678.34
2022-10-09T04:50:23.444Z,97674.28
2022-10-09T04:51:25.277Z,97680.97
2022-10-09T04:52:27.082Z,97682.38
2022-10-09T04:53:28.926Z,97675.91
2022-10-09T04:54:30.628Z,97677.34
2022-10-09T04:55:32.394Z,97684.19
2022-10-09T04:56:34.297Z,97675.53
2022-10-09T04:57:36.206Z,97672.91
2022-10-09T04:58:39.902Z,97675.53
2022-10-09T04:59:41.711Z,97669.47
2022-10-09T05:00:44.649Z,97680.56
2022-10-09T05:01:46.564Z,97676.91
2022-10-09T05:02:48.605Z,97679.53
2022-10-09T05:03:51.052Z,97673.69
2022-10-09T05:04:52.793Z,97676.91
2022-10-09T05:05:54.598Z,97674.50
2022-10-09T05:06:56.354Z,97675.53
2022-10-09T05:07:58.257Z,97679.34
2022-10-09T05:09:00.023Z,97674.09
2022-10-09T05:10:01.770Z,97673.88
2022-10-09T05:11:08.132Z,97674.72
2022-10-09T05:12:09.947Z,97674.50
2022-10-09T05:13:12.989Z,97675.31
2022-10-09T05:14:14.821Z,97671.69
2022-10-09T05:15:16.614Z,97677.34
2022-10-09T05:16:20.105Z,97676.31
2022-10-09T05:17:23.564Z,97676.31
2022-10-09T05:18:26.004Z,97678.13
2022-10-09T05:19:27.853Z,97684.19
2022-10-09T05:20:29.774Z,97678.94
2022-10-09T05:21:31.826Z,97686.59
2022-10-09T05:22:33.703Z,97682.16
2022-10-09T05:23:36.141Z,97681.16
2022-10-09T05:24:37.925Z,97683.97
2022-10-09T05:25:39.716Z,97686.41
2022-10-09T05:26:41.475Z,97684.78
2022-10-09T05:27:44.075Z,97679.75
2022-10-09T05:28:46.555Z,97682.59
2022-10-09T05:29:48.428Z,97685.22
2022-10-09T05:30:50.381Z,97690.22
2022-10-09T05:31:52.231Z,97683.38
2022-10-09T05:32:54.024Z,97682.34
2022-10-09T05:33:56.781Z,97682.59
2022-10-09T05:34:58.544Z,97688.81
2022-10-09T05:36:01.331Z,97681.75
2022-10-09T05:37:03.179Z,97683.38
2022-10-09T05:38:04.974Z,97681.75
2022-10-09T05:39:06.821Z,97685.41
2022-10-09T05:40:08.936Z,97673.28
2022-10-09T05:41:12.174Z,97688.03
2022-10-09T05:42:13.997Z,97686.38
2022-10-09T05:43:15.718Z,97688.22
2022-10-09T05:44:17.463Z,97688.41
2022-10-09T05:45:19.211Z,97690.22
2022-10-09T05:46:24.858Z,97694.25
2022-10-09T05:47:26.713Z,97688.59
2022-10-09T05:48:32.042Z,97697.50
2022-10-09T05:49:33.873Z,97699.50
2022-10-09T05:50:35.633Z,97696.06
2022-10-09T05:51:38.255Z,97694.03
2022-10-09T05:52:40.356Z,97690.63
2022-10-09T05:53:42.940Z,97691.22
2022-10-09T05:54:44.718Z,97697.88
2022-10-09T05:55:48.110Z,97693.25
2022-10-09T05:56:50.011Z,97698.09
2022-10-09T05:57:53.090Z,97692.66
2022-10-09T05:58:56.412Z,97699.50
2022-10-09T05:59:58.238Z,97698.50
2022-10-09T06:01:00.490Z,97704.34
2022-10-09T06:02:02.414Z,97706.56
2022-10-09T06:03:04.234Z,97702.13
2022-10-09T06:04:09.547Z,97704.56
2022-10-09T06:05:11.695Z,97699.91
2022-10-09T06:06:13.471Z,97701.53
2022-10-09T06:07:15.243Z,97703.56
2022-10-09T06:08:17.045Z,97704.34
2022-10-09T06:09:22.611Z,97704.34
2022-10-09T06:10:25.651Z,97700.72
2022-10-09T06:11:32.590Z,97705.97
2022-10-09T06:12:34.413Z,97708.56
2022-10-09T06:13:36.278Z,97702.34
2022-10-09T06:14:38.118Z,97706.38
2022-10-09T06:15:39.939Z,97711.41
2022-10-09T06:16:42.683Z,97711.22
2022-10-09T06:17:44.479Z,97704.34
2022-10-09T06:18:49.245Z,97708.78
2022-10-09T06:19:51.552Z,97707.16
2022-10-09T06:20:57.126Z,97707.59
2022-10-09T06:21:58.948Z,97713.63
2022-10-09T06:23:00.728Z,97715.88
2022-10-09T06:24:03.665Z,97708.78
2022-10-09T06:25:05.673Z,97705.97
2022-10-09T06:26:08.942Z,97709.41
2022-10-09T06:27:11.400Z,97709.41
2022-10-09T06:28:13.197Z,97697.09
2022-10-09T06:29:15.208Z,97711.00
2022-10-09T06:30:17.192Z,97710.22
2022-10-09T06:31:20.649Z,97712.03
2022-10-09T06:32:22.529Z,97705.75
2022-10-09T06:33:24.263Z,97716.25
2022-10-09T06:34:26.081Z,97712.41
2022-10-09T06:35:27.895Z,97705.38
2022-10-09T06:36:30.546Z,97713.03
2022-10-09T06:37:32.391Z,97710.63
2022-10-09T06:38:35.109Z,97708.38
2022-10-09T06:39:36.937Z,97717.88
2022-10-09T06:40:38.884Z,97717.88
2022-10-09T06:41:40.989Z,97711.59
2022-10-09T06:42:42.757Z,97715.88
2022-10-09T06:43:49.118Z,97726.34
2022-10-09T06:44:50.890Z,97724.34
2022-10-09T06:45:52.724Z,97718.47
2022-10-09T06:46:54.567Z,97722.72
2022-10-09T06:47:56.715Z,97727.34
2022-10-09T06:48:59.223Z,97724.13
2022-10-09T06:50:01.001Z,97722.31
2022-10-09T06:51:03.591Z,97726.53
2022-10-09T06:52:05.358Z,97725.56
2022-10-09T06:53:07.241Z,97729.78
2022-10-09T06:54:14.027Z,97735.44
2022-10-09T06:55:16.060Z,97738.66
2022-10-09T06:56:18.660Z,97727.34
2022-10-09T06:57:20.506Z,97739.84
2022-10-09T06:58:22.335Z,97734.59
2022-10-09T06:59:24.088Z,97734.81
2022-10-09T07:00:26.209Z,97741.66
2022-10-09T07:01:31.127Z,97739.66
2022-10-09T07:02:33.601Z,97729.59
2022-10-09T07:03:36.358Z,97731.19
2022-10-09T07:04:38.126Z,97741.28
2022-10-09T07:05:39.911Z,97736.66
2022-10-09T07:06:43.405Z,97737.44
2022-10-09T07:07:45.144Z,97732.81
2022-10-09T07:08:48.504Z,97732.59
2022-10-09T07:09:51.174Z,97726.97
2022-10-09T07:10:52.947Z,97731.38
2022-10-09T07:11:54.724Z,97732.59
2022-10-09T07:12:56.490Z,97734.22
2022-10-09T07:13:59.169Z,97736.84
2022-10-09T07:15:00.922Z,97736.84
2022-10-09T07:16:04.802Z,97740.09
2022-10-09T07:17:07.168Z,97740.09
2022-10-09T07:18:08.933Z,97737.25
2022-10-09T07:19:12.168Z,97737.06
2022-10-09T07:20:13.882Z,97736.06
2022-10-09T07:21:15.910Z,97738.69
2022-10-09T07:22:17.889Z,97730.59
2022-10-09T07:23:19.693Z,97739.47
2022-10-09T07:24:22.186Z,97736.25
2022-10-09T07:25:24.006Z,97738.88
2022-10-09T07:26:26.902Z,97738.88
2022-10-09T07:27:28.770Z,97744.31
2022-10-09T07:28:30.728Z,97741.50
2022-10-09T07:29:32.614Z,97735.84
2022-10-09T07:30:37.939Z,97740.69
2022-10-09T07:31:39.824Z,97740.06
2022-10-09T07:32:41.613Z,97745.94
2022-10-09T07:33:43.625Z,97744.72
2022-10-09T07:34:45.424Z,97738.28
2022-10-09T07:35:56.160Z,97739.88
2022-10-09T07:36:58.276Z,97745.53
2022-10-09T07:38:00.133Z,97736.44
2022-10-09T07:39:01.967Z,97739.06
2022-10-09T07:40:03.937Z,97734.59
2022-10-09T07:41:07.673Z,97736.03
2022-10-09T07:42:09.378Z,97740.06
2022-10-09T07:43:11.183Z,97726.75
2022-10-09T07:44:13.023Z,97737.03
2022-10-09T07:45:14.775Z,97739.06
2022-10-09T07:46:17.838Z,97736.22
2022-10-09T07:47:19.705Z,97728.16
2022-10-09T07:48:21.509Z,97731.81
2022-10-09T07:49:23.305Z,97734.41
2022-10-09T07:50:25.178Z,97736.22
2022-10-09T07:51:30.265Z,97736.03
2022-10-09T07:52:31.997Z,97732.59
2022-10-09T07:53:35.917Z,97734.19
2022-10-09T07:54:37.904Z,97728.75
2022-10-09T07:55:44.811Z,97729.56
2022-10-09T07:56:46.641Z,97731.56
2022-10-09T07:57:48.390Z,97726.13
2022-10-09T07:58:54.258Z,97729.78
2022-10-09T07:59:56.004Z,97722.69
2022-10-09T08:01:03.036Z,97726.94
2022-10-09T08:02:04.896Z,97723.50
2022-10-09T08:03:06.698Z,97726.94
2022-10-09T08:04:08.543Z,97723.31
2022-10-09T08:05:10.729Z,97726.94
2022-10-09T08:06:12.582Z,97735.41
2022-10-09T08:07:14.429Z,97729.16
2022-10-09T08:08:16.244Z,97722.88
2022-10-09T08:09:18.128Z,97726.09
2022-10-09T08:10:19.961Z,97725.91
2022-10-09T08:11:22.796Z,97728.94
2022-10-09T08:12:24.605Z,97725.50
2022-10-09T08:13:26.973Z,97729.75
2022-10-09T08:14:28.748Z,97725.09
2022-10-09T08:15:30.516Z,97729.53
2022-10-09T08:16:32.802Z,97724.69
2022-10-09T08:17:34.533Z,97727.31
2022-10-09T08:18:36.925Z,97720.03
2022-10-09T08:19:38.762Z,97723.25
2022-10-09T08:20:40.597Z,97722.47
2022-10-09T08:21:43.310Z,97716.41
2022-10-09T08:22:45.105Z,97718.00
2022-10-09T08:23:47.049Z,97722.06
2022-10-09T08:24:48.832Z,97716.38
2022-10-09T08:25:50.652Z,97720.41
2022-10-09T08:26:52.472Z,97719.63
2022-10-09T08:27:54.618Z,97724.66
2022-10-09T08:28:57.928Z,97724.88
2022-10-09T08:29:59.722Z,97724.28
2022-10-09T08:31:09.919Z,97720.84
2022-10-09T08:32:11.742Z,97722.44
2022-10-09T08:33:13.583Z,97724.66
2022-10-09T08:34:16.262Z,97720.41
2022-10-09T08:35:18.181Z,97728.94
2022-10-09T08:36:19.930Z,97716.78
2022-10-09T08:37:21.694Z,97724.66
2022-10-09T08:38:46.050Z,97724.47
2022-10-09T08:39:45.183Z,97724.47
2022-10-09T08:41:03.148Z,97721.25
2022-10-09T08:42:06.309Z,97726.72
2022-10-09T08:43:11.350Z,97722.06
2022-10-09T08:44:22.309Z,97720.84
2022-10-09T08:45:24.092Z,97710.97
2022-10-09T08:46:29.571Z,97717.00
2022-10-09T08:47:38.011Z,97726.91
2022-10-09T08:48:42.649Z,97717.00
2022-10-09T08:49:56.911Z,97717.00
2022-10-09T08:50:59.704Z,97713.16
2022-10-09T08:52:12.002Z,97722.44
2022-10-09T08:53:13.835Z,97718.78
2022-10-09T08:54:22.705Z,97715.97
2022-10-09T08:55:43.372Z,97724.03
2022-10-09T08:56:46.094Z,97724.44
2022-10-09T08:57:52.817Z,97724.03
2022-10-09T08:58:54.650Z,97728.88
2022-10-09T08:59:57.359Z,97720.78
2022-10-09T09:01:03.102Z,97719.38
2022-10-09T09:02:07.754Z,97725.63
2022-10-09T09:03:21.569Z,97720.97
2022-10-09T09:04:45.527Z,97719.53
2022-10-09T09:05:50.324Z,97720.53
2022-10-09T09:07:07.950Z,97721.91
2022-10-09T09:08:17.210Z,97713.22
2022-10-09T09:09:28.011Z,97722.72
2022-10-09T09:10:41.702Z,97716.03
2022-10-09T09:12:03.808Z,97716.63
2022-10-09T09:13:18.710Z,97716.22
2022-10-09T09:14:23.550Z,97714.34
2022-10-09T09:15:45.055Z,97711.09
2022-10-09T09:16:46.828Z,97711.31
2022-10-09T09:18:18.092Z,97710.31
2022-10-09T09:19:36.817Z,97710.66
2022-10-09T09:20:44.406Z,97702.72
2022-10-09T09:21:51.457Z,97704.50
2022-10-09T09:22:53.233Z,97700.22
2022-10-09T09:23:55.763Z,97700.38
2022-10-09T09:24:58.514Z,97696.28
2022-10-09T09:26:01.304Z,97696.09
2022-10-09T09:27:04.625Z,97697.44
2022-10-09T09:28:22.937Z,97695.16
2022-10-09T09:29:25.653Z,97694.38
2022-10-09T09:30:41.103Z,97685.69
2022-10-09T09:31:43.454Z,97690.34
2022-10-09T09:32:52.755Z,97688.13
2022-10-09T09:33:57.809Z,97688.72
2022-10-09T09:35:14.217Z,97688.25
2022-10-09T09:36:23.010Z,97687.38
2022-10-09T09:37:24.877Z,97678.75
2022-10-09T09:38:26.745Z,97682.78
2022-10-09T09:40:53.628Z,97679.16
2022-10-09T09:42:21.691Z,97676.72
2022-10-09T09:43:25.655Z,97686.06
2022-10-09T09:44:28.685Z,97684.91
2022-10-09T09:45:30.632Z,97663.13
2022-10-09T09:46:32.778Z,97673.06
2022-10-09T09:47:38.395Z,97669.22
2022-10-09T09:48:41.387Z,97670.84
2022-10-09T09:49:53.442Z,97668.00
2022-10-09T09:51:16.071Z,97665.56
2022-10-09T09:52:18.404Z,97664.91
2022-10-09T09:53:22.999Z,97664.28
2022-10-09T09:54:29.044Z,97658.59
2022-10-09T09:55:31.792Z,97670.94
2022-10-09T09:58:07.615Z,97665.03
2022-10-09T09:59:25.970Z,97658.75
2022-10-09T10:00:27.938Z,97657.06
2022-10-09T10:01:31.774Z,97656.03
2022-10-09T10:02:35.985Z,97661.69
2022-10-09T10:03:47.739Z,97664.06
2022-10-09T10:04:52.773Z,97654.59
2022-10-09T10:05:54.859Z,97657.81
2022-10-09T10:06:56.794Z,97663.66
2022-10-09T10:07:58.614Z,97659.56
2022-10-09T10:09:13.401Z,97658.31
2022-10-09T10:10:25.026Z,97656.72
2022-10-09T10:11:28.567Z,97656.13
2022-10-09T10:12:30.744Z,97655.34
2022-10-09T10:13:32.437Z,97654.72
2022-10-09T10:14:36.423Z,97653.94
2022-10-09T10:15:38.512Z,97653.13
2022-10-09T10:16:40.647Z,97655.56
2022-10-09T10:17:42.432Z,97648.38
2022-10-09T10:18:44.211Z,97646.91
2022-10-09T10:19:51.477Z,97651.75
2022-10-09T10:20:55.293Z,97656.56
2022-10-09T10:22:00.048Z,97653.88
2022-10-09T10:23:01.899Z,97654.38
2022-10-09T10:24:05.579Z,97644.56
2022-10-09T10:25:17.493Z,97639.81
2022-10-09T10:26:37.923Z,97647.03
2022-10-09T10:27:41.333Z,97650.25
2022-10-09T10:28:51.438Z,97644.56
2022-10-09T10:29:56.643Z,97649.16
2022-10-09T10:30:59.796Z,97649.38
2022-10-09T10:32:22.089Z,97639.88
2022-10-09T10:33:29.426Z,97643.16
2022-10-09T10:34:33.873Z,97642.94
2022-10-09T10:35:38.420Z,97638.03
2022-10-09T10:36:40.287Z,97632.97
2022-10-09T10:37:52.892Z,97628.50
2022-10-09T10:39:02.779Z,97632.84
2022-10-09T10:40:16.557Z,97631.03
2022-10-09T10:41:26.677Z,97624.41
2022-10-09T10:42:36.901Z,97621.13
2022-10-09T10:43:43.397Z,97617.69
2022-10-09T10:44:50.774Z,97621.47
2022-10-09T10:45:52.501Z,97618.03
2022-10-09T10:47:00.281Z,97617.28
2022-10-09T10:48:04.522Z,97610.63
2022-10-09T10:49:09.683Z,97606.16
2022-10-09T10:50:16.093Z,97606.59
2022-10-09T10:51:31.075Z,97610.41
2022-10-09T10:52:41.723Z,97608.34
2022-10-09T10:54:05.486Z,97606.25
2022-10-09T10:55:07.500Z,97608.69
2022-10-09T10:56:35.573Z,97603.63
2022-10-09T10:57:37.377Z,97596.75
2022-10-09T10:58:55.216Z,97599.03
2022-10-09T11:00:05.508Z,97602.75
2022-10-09T11:01:15.096Z,97598.69
2022-10-09T11:02:23.013Z,97591.13
2022-10-09T11:03:27.884Z,97593.06
2022-10-09T11:04:41.689Z,97588.91
2022-10-09T11:05:54.428Z,97585.47
2022-10-09T11:06:59.094Z,97583.84
2022-10-09T11:08:11.707Z,97581.75
2022-10-09T11:09:33.719Z,97581.75
2022-10-09T11:10:47.948Z,97583.97
2022-10-09T11:11:53.493Z,97580.06
2022-10-09T11:13:18.384Z,97583.84
2022-10-09T11:14:36.655Z,97583.00
2022-10-09T11:15:41.228Z,97583.88
2022-10-09T11:16:46.019Z,97580.41
2022-10-09T11:17:50.771Z,97576.03
2022-10-09T11:19:01.588Z,97578.13
2022-10-09T11:20:29.654Z,97575.81
2022-10-09T11:21:45.494Z,97568.78
2022-10-09T11:23:08.769Z,97562.03
2022-10-09T11:24:27.759Z,97562.47
2022-10-09T11:25:29.890Z,97564.94
2022-10-09T11:26:53.517Z,97563.41
2022-10-09T11:28:07.716Z,97558.91
2022-10-09T11:29:22.524Z,97561.66
2022-10-09T11:30:26.838Z,97565.25
2022-10-09T11:31:31.833Z,97559.53
2022-10-09T11:32:52.346Z,97551.69
2022-10-09T11:33:58.710Z,97556.56
2022-10-09T11:35:04.576Z,97554.53
2022-10-09T11:36:24.923Z,97552.78
2022-10-09T11:37:30.051Z,97542.53
2022-10-09T11:38:40.483Z,97547.38
2022-10-09T11:39:42.563Z,97539.41
2022-10-09T11:40:44.337Z,97526.38
2022-10-09T11:41:47.822Z,97535.13
2022-10-09T11:42:56.370Z,97540.44
2022-10-09T11:44:07.278Z,97538.09
2022-10-09T11:45:30.581Z,97529.97
2022-10-09T11:47:38.328Z,97523.88
2022-10-09T11:48:45.505Z,97530.59
2022-10-09T11:49:47.257Z,97524.28
2022-10-09T11:50:53.614Z,97530.16
2022-10-09T11:52:01.566Z,97519.53
2022-10-09T11:53:06.000Z,97520.34
2022-10-09T11:54:11.418Z,97515.84
2022-10-09T11:55:21.544Z,97513.19
2022-10-09T11:56:24.920Z,97507.41
2022-10-09T11:57:27.880Z,97513.25
2022-10-09T11:58:29.769Z,97511.38
2022-10-09T11:59:36.672Z,97505.84
2022-10-09T12:00:38.469Z,97507.75
2022-10-09T12:01:41.926Z,97503.00
2022-10-09T12:02:44.313Z,97499.25
2022-10-09T12:03:46.078Z,97496.25
2022-10-09T12:04:54.942Z,97493.72
2022-10-09T12:06:14.462Z,97487.09
2022-10-09T12:07:26.731Z,97492.50
2022-10-09T12:08:29.122Z,97492.22
2022-10-09T12:09:32.991Z,97486.38
2022-10-09T12:10:35.435Z,97481.63
2022-10-09T12:11:38.661Z,97481.91
2022-10-09T12:12:40.623Z,97485.81
2022-10-09T12:13:45.607Z,97482.06
2022-10-09T12:14:49.181Z,97471.88
2022-10-09T12:15:50.904Z,97474.44
2022-10-09T12:16:53.695Z,97475.00
2022-10-09T12:17:55.543Z,97472.91
2022-10-09T12:18:58.514Z,97471.38
2022-10-09T12:20:08.833Z,97469.25
2022-10-09T12:21:22.242Z,97470.63
2022-10-09T12:22:27.787Z,97466.44
2022-10-09T12:23:32.346Z,97469.34
2022-10-09T12:24:54.032Z,97467.16
2022-10-09T12:25:56.677Z,97459.03
2022-10-09T12:27:01.070Z,97463.03
2022-10-09T12:28:03.025Z,97457.22
2022-10-09T12:29:05.624Z,97455.38
2022-10-09T12:30:13.614Z,97452.97
2022-10-09T12:31:26.521Z,97453.78
2022-10-09T12:32:34.051Z,97446.63
2022-10-09T12:33:42.275Z,97451.69
2022-10-09T12:34:46.845Z,97446.94
2022-10-09T12:35:58.117Z,97440.31
2022-10-09T12:37:13.875Z,97440.28
2022-10-09T12:38:18.882Z,97438.44
2022-10-09T12:39:24.721Z,97443.19
2022-10-09T12:40:29.120Z,97439.72
2022-10-09T12:41:33.181Z,97440.72
2022-10-09T12:42:35.147Z,97436.97
2022-10-09T12:43:37.122Z,97434.53
2022-10-09T12:44:42.735Z,97428.94